Time,TemperatureF,DewpointF,PressureIn,WindDirection,WindDirectionDegrees,WindSpeedMPH,WindSpeedGustMPH,Humidity,HourlyPrecipIn,Conditions,Clouds,dailyrainin,SoftwareType,DateUTC
2015-04-27 00:00:00,54.2,43.4,27.32,North,360,1.6,2.5,67,0.00,,,0.00,WSDL version 420,2015-04-27 07:00:00,
2015-04-27 00:06:00,54.1,43.4,27.32,North,-9999,-999.9,-999.0,67,0.00,,,0.00,WSDL version 420,2015-04-27 07:06:00,
2015-04-27 00:12:00,53.9,42.8,27.32,North,-9999,-999.9,-999.0,66,0.00,,,0.00,WSDL version 420,2015-04-27 07:12:00,
2015-04-27 00:18:00,53.8,42.7,27.32,North,-9999,-999.9,-999.0,66,0.00,,,0.00,WSDL version 420,2015-04-27 07:18:00,
2015-04-27 00:24:00,53.7,42.4,27.32,North,-9999,-999.9,-999.0,63,0.00,,,0.00,WSDL version 420,2015-04-27 07:24:00,
2015-04-27 00:30:00,53.5,42.1,27.32,North,-9999,-999.9,-999.0,65,0.00,,,0.00,WSDL version 420,2015-04-27 07:30:00,
2015-04-27 00:36:00,53.4,41.6,27.32,North,-9999,-999.9,-999.0,64,0.00,,,0.00,WSDL version 420,2015-04-27 07:36:00,
2015-04-27 00:42:00,53.4,41.3,27.32,North,-9999,-999.9,-999.0,64,0.00,,,0.00,WSDL version 420,2015-04-27 07:42:00,
2015-04-27 00:48:00,53.2,40.8,27.32,North,-9999,-999.9,-999.0,63,0.00,,,0.00,WSDL version 420,2015-04-27 07:48:00,
2015-04-27 00:54:00,53.2,40.6,27.32,North,-9999,-999.9,-999.0,60,0.00,,,0.00,WSDL version 420,2015-04-27 07:54:00,
2015-04-27 01:00:00,53.4,40.2,27.32,North,-9999,-999.9,-999.0,61,0.00,,,0.00,WSDL version 420,2015-04-27 08:00:00,
2015-04-27 01:06:00,53.2,39.5,27.32,North,-9999,-999.9,-999.0,59,0.00,,,0.00,WSDL version 420,2015-04-27 08:06:00,
2015-04-27 01:12:00,53.3,39.9,27.32,North,-9999,-999.9,-999.0,61,0.00,,,0.00,WSDL version 420,2015-04-27 08:12:00,
2015-04-27 01:18:00,53.1,40.4,27.32,North,-9999,-999.9,-999.0,62,0.00,,,0.00,WSDL version 420,2015-04-27 08:18:00,
2015-04-27 01:24:00,53.1,40.3,27.32,North,-9999,-999.9,-999.0,61,0.00,,,0.00,WSDL version 420,2015-04-27 08:24:00,
2015-04-27 01:30:00,53.1,40.3,27.32,North,-9999,-999.9,-999.0,62,0.00,,,0.00,WSDL version 420,2015-04-27 08:30:00,
2015-04-27 01:36:00,53.1,40.2,27.32,North,-9999,-999.9,-999.0,62,0.00,,,0.00,WSDL version 420,2015-04-27 08:36:00,
2015-04-27 01:42:00,53.0,40.2,27.32,North,-9999,-999.9,-999.0,62,0.00,,,0.00,WSDL version 420,2015-04-27 08:42:00,
2015-04-27 01:48:00,52.9,40.0,27.29,North,-9999,-999.9,-999.0,61,0.00,,,0.00,WSDL version 420,2015-04-27 08:48:00,
2015-04-27 01:54:00,52.9,39.5,27.29,North,-9999,-999.9,-999.0,61,0.00,,,0.00,WSDL version 420,2015-04-27 08:54:00,
2015-04-27 02:00:00,52.7,39.9,27.29,North,-9999,-999.9,-999.0,62,0.00,,,0.00,WSDL version 420,2015-04-27 09:00:00,
2015-04-27 02:06:00,52.7,40.0,27.29,North,-9999,-999.9,-999.0,62,0.00,,,0.00,WSDL version 420,2015-04-27 09:06:00,
2015-04-27 02:12:00,52.5,40.2,27.29,North,-9999,-999.9,-999.0,63,0.00,,,0.00,WSDL version 420,2015-04-27 09:12:00,
2015-04-27 02:18:00,52.5,39.9,27.32,NNE,23,2.5,2.5,62,0.00,,,0.00,WSDL version 420,2015-04-27 09:18:00,
2015-04-27 02:24:00,52.3,39.5,27.32,North,-9999,-999.9,-999.0,61,0.00,,,0.00,WSDL version 420,2015-04-27 09:24:00,
2015-04-27 02:30:00,52.3,39.1,27.29,North,-9999,-999.9,-999.0,60,0.00,,,0.00,WSDL version 420,2015-04-27 09:30:00,
2015-04-27 02:36:00,52.2,38.5,27.29,North,-9999,-999.9,-999.0,60,0.00,,,0.00,WSDL version 420,2015-04-27 09:36:00,
2015-04-27 02:42:00,52.2,37.9,27.29,North,-9999,-999.9,-999.0,58,0.00,,,0.00,WSDL version 420,2015-04-27 09:42:00,
2015-04-27 02:48:00,52.1,38.0,27.29,North,-9999,-999.9,-999.0,58,0.00,,,0.00,WSDL version 420,2015-04-27 09:48:00,
2015-04-27 02:54:00,52.0,37.8,27.29,North,-9999,-999.9,-999.0,58,0.00,,,0.00,WSDL version 420,2015-04-27 09:54:00,
2015-04-27 03:00:00,52.1,36.8,27.29,North,-9999,-999.9,-999.0,54,0.00,,,0.00,WSDL version 420,2015-04-27 10:00:00,
2015-04-27 03:06:00,52.2,37.8,27.29,North,-9999,-999.9,-999.0,58,0.00,,,0.00,WSDL version 420,2015-04-27 10:06:00,
2015-04-27 03:12:00,52.2,38.2,27.29,North,-9999,-999.9,-999.0,58,0.00,,,0.00,WSDL version 420,2015-04-27 10:12:00,
2015-04-27 03:18:00,52.2,38.0,27.29,North,-9999,-999.9,-999.0,59,0.00,,,0.00,WSDL version 420,2015-04-27 10:18:00,
2015-04-27 03:24:00,52.2,38.1,27.29,North,-9999,-999.9,-999.0,59,0.00,,,0.00,WSDL version 420,2015-04-27 10:24:00,
2015-04-27 03:30:00,52.1,38.6,27.29,North,-9999,-999.9,-999.0,60,0.00,,,0.00,WSDL version 420,2015-04-27 10:30:00,
2015-04-27 03:36:00,52.0,38.0,27.29,North,0,0.0,2.7,58,0.00,,,0.00,WSDL version 420,2015-04-27 10:36:00,
2015-04-27 03:42:00,52.2,38.0,27.29,North,-9999,-999.9,-999.0,58,0.00,,,0.00,WSDL version 420,2015-04-27 10:42:00,
2015-04-27 03:48:00,52.2,37.6,27.32,North,-9999,-999.9,-999.0,58,0.00,,,0.00,WSDL version 420,2015-04-27 10:48:00,
2015-04-27 03:54:00,52.0,37.3,27.32,NNE,23,2.5,2.5,57,0.00,,,0.00,WSDL version 420,2015-04-27 10:54:00,
2015-04-27 04:00:00,52.0,37.4,27.32,North,-9999,-999.9,-999.0,57,0.00,,,0.00,WSDL version 420,2015-04-27 11:00:00,
2015-04-27 04:06:00,52.0,37.5,27.32,North,-9999,-999.9,-999.0,58,0.00,,,0.00,WSDL version 420,2015-04-27 11:06:00,
2015-04-27 04:12:00,52.0,37.7,27.32,North,-9999,-999.9,-999.0,59,0.00,,,0.00,WSDL version 420,2015-04-27 11:12:00,
2015-04-27 04:18:00,51.8,38.1,27.29,North,-9999,-999.9,-999.0,59,0.00,,,0.00,WSDL version 420,2015-04-27 11:18:00,
2015-04-27 04:24:00,51.6,38.1,27.29,North,-9999,-999.9,-999.0,60,0.00,,,0.00,WSDL version 420,2015-04-27 11:24:00,
2015-04-27 04:30:00,51.6,37.9,27.29,North,-9999,-999.9,-999.0,59,0.00,,,0.00,WSDL version 420,2015-04-27 11:30:00,
2015-04-27 04:36:00,51.5,38.0,27.29,North,-9999,-999.9,-999.0,58,0.00,,,0.00,WSDL version 420,2015-04-27 11:36:00,
2015-04-27 04:42:00,51.6,37.0,27.29,North,-9999,-999.9,-999.0,58,0.00,,,0.00,WSDL version 420,2015-04-27 11:42:00,
2015-04-27 04:48:00,51.6,37.6,27.29,North,-9999,-999.9,-999.0,59,0.00,,,0.00,WSDL version 420,2015-04-27 11:48:00,
2015-04-27 04:54:00,51.5,38.1,27.29,NNW,338,2.2,2.5,60,0.00,,,0.00,WSDL version 420,2015-04-27 11:54:00,
2015-04-27 05:00:00,51.4,38.1,27.29,North,-9999,-999.9,-999.0,60,0.00,,,0.00,WSDL version 420,2015-04-27 12:00:00,
2015-04-27 05:12:00,51.7,37.1,27.29,NNW,338,2.2,2.7,57,0.00,,,0.00,WSDL version 420,2015-04-27 12:12:00,
2015-04-27 05:18:00,52.1,36.1,27.29,North,0,0.0,2.7,54,0.00,,,0.00,WSDL version 420,2015-04-27 12:18:00,
2015-04-27 05:24:00,52.4,36.0,27.29,North,-9999,-999.9,-999.0,54,0.00,,,0.00,WSDL version 420,2015-04-27 12:24:00,
2015-04-27 05:30:00,53.0,35.2,27.29,North,-9999,-999.9,-999.0,48,0.00,,,0.00,WSDL version 420,2015-04-27 12:30:00,
2015-04-27 05:36:00,53.8,34.6,27.29,North,-9999,-999.9,-999.0,49,0.00,,,0.00,WSDL version 420,2015-04-27 12:36:00,
2015-04-27 05:42:00,53.8,34.7,27.29,North,-9999,-999.9,-999.0,48,0.00,,,0.00,WSDL version 420,2015-04-27 12:42:00,
2015-04-27 05:48:00,53.9,34.2,27.29,NNW,338,0.5,2.5,48,0.00,,,0.00,WSDL version 420,2015-04-27 12:48:00,
2015-04-27 05:54:00,53.9,34.8,27.29,NNW,338,1.1,2.7,49,0.00,,,0.00,WSDL version 420,2015-04-27 12:54:00,
2015-04-27 06:00:00,54.1,33.9,27.29,North,0,0.0,3.4,43,0.00,,,0.00,WSDL version 420,2015-04-27 13:00:00,
2015-04-27 06:06:00,54.8,34.2,27.29,North,-9999,-999.9,-999.0,47,0.00,,,0.00,WSDL version 420,2015-04-27 13:06:00,
2015-04-27 06:12:00,54.6,34.6,27.29,NNW,338,1.3,2.5,47,0.00,,,0.00,WSDL version 420,2015-04-27 13:12:00,
2015-04-27 06:18:00,54.6,34.2,27.29,North,-9999,-999.9,-999.0,46,0.00,,,0.00,WSDL version 420,2015-04-27 13:18:00,
2015-04-27 06:24:00,54.5,35.2,27.29,North,-9999,-999.9,-999.0,48,0.00,,,0.00,WSDL version 420,2015-04-27 13:24:00,
2015-04-27 06:30:00,54.5,34.9,27.29,North,-9999,-999.9,-999.0,49,0.00,,,0.00,WSDL version 420,2015-04-27 13:30:00,
2015-04-27 06:36:00,54.6,34.9,27.29,NE,45,0.9,4.5,47,0.00,,,0.00,WSDL version 420,2015-04-27 13:36:00,
2015-04-27 06:42:00,54.8,35.5,27.29,North,-9999,-999.9,-999.0,48,0.00,,,0.00,WSDL version 420,2015-04-27 13:42:00,
2015-04-27 06:48:00,54.6,35.8,27.32,North,-9999,-999.9,-999.0,50,0.00,,,0.00,WSDL version 420,2015-04-27 13:48:00,
2015-04-27 06:54:00,54.9,35.2,27.32,North,-9999,-999.9,-999.0,46,0.00,,,0.00,WSDL version 420,2015-04-27 13:54:00,
2015-04-27 07:06:00,55.0,36.8,27.32,North,-9999,-999.9,-999.0,50,0.00,,,0.00,WSDL version 420,2015-04-27 14:06:00,
2015-04-27 07:12:00,54.9,36.7,27.32,North,-9999,-999.9,-999.0,52,0.00,,,0.00,WSDL version 420,2015-04-27 14:12:00,
2015-04-27 07:18:00,55.6,36.4,27.32,North,-9999,-999.9,-999.0,48,0.00,,,0.00,WSDL version 420,2015-04-27 14:18:00,
2015-04-27 07:24:00,56.0,36.8,27.32,North,-9999,-999.9,-999.0,49,0.00,,,0.00,WSDL version 420,2015-04-27 14:24:00,
2015-04-27 07:30:00,56.1,37.0,27.32,North,-9999,-999.9,-999.0,49,0.00,,,0.00,WSDL version 420,2015-04-27 14:30:00,
2015-04-27 07:36:00,56.4,37.5,27.32,North,-9999,-999.9,-999.0,49,0.00,,,0.00,WSDL version 420,2015-04-27 14:36:00,
2015-04-27 07:42:00,57.0,36.2,27.32,North,-9999,-999.9,-999.0,47,0.00,,,0.00,WSDL version 420,2015-04-27 14:42:00,
2015-04-27 07:48:00,57.3,37.6,27.32,North,-9999,-999.9,-999.0,47,0.00,,,0.00,WSDL version 420,2015-04-27 14:48:00,
2015-04-27 07:54:00,58.1,36.4,27.32,North,-9999,-999.9,-999.0,41,0.00,,,0.00,WSDL version 420,2015-04-27 14:54:00,
2015-04-27 08:00:00,58.7,35.8,27.32,North,-9999,-999.9,-999.0,44,0.00,,,0.00,WSDL version 420,2015-04-27 15:00:00,
2015-04-27 08:06:00,59.4,34.8,27.32,North,-9999,-999.9,-999.0,39,0.00,,,0.00,WSDL version 420,2015-04-27 15:06:00,
2015-04-27 08:12:00,59.9,36.8,27.32,North,-9999,-999.9,-999.0,44,0.00,,,0.00,WSDL version 420,2015-04-27 15:12:00,
2015-04-27 08:18:00,60.4,35.0,27.32,North,-9999,-999.9,-999.0,36,0.00,,,0.00,WSDL version 420,2015-04-27 15:18:00,
2015-04-27 08:24:00,61.2,34.4,27.32,North,-9999,-999.9,-999.0,37,0.00,,,0.00,WSDL version 420,2015-04-27 15:24:00,
2015-04-27 08:30:00,61.6,35.5,27.32,North,-9999,-999.9,-999.0,36,0.00,,,0.00,WSDL version 420,2015-04-27 15:30:00,
2015-04-27 08:36:00,62.1,36.1,27.32,North,-9999,-999.9,-999.0,38,0.00,,,0.00,WSDL version 420,2015-04-27 15:36:00,
2015-04-27 08:42:00,62.8,34.9,27.32,North,-9999,-999.9,-999.0,35,0.00,,,0.00,WSDL version 420,2015-04-27 15:42:00,
2015-04-27 08:48:00,63.7,35.4,27.32,North,-9999,-999.9,-999.0,35,0.00,,,0.00,WSDL version 420,2015-04-27 15:48:00,
2015-04-27 08:54:00,64.6,37.8,27.32,North,-9999,-999.9,-999.0,36,0.00,,,0.00,WSDL version 420,2015-04-27 15:54:00,
2015-04-27 09:00:00,65.8,36.6,27.32,North,-9999,-999.9,-999.0,33,0.00,,,0.00,WSDL version 420,2015-04-27 16:00:00,
2015-04-27 09:06:00,66.9,36.6,27.32,North,-9999,-999.9,-999.0,33,0.00,,,0.00,WSDL version 420,2015-04-27 16:06:00,
2015-04-27 09:12:00,67.8,36.8,27.32,North,-9999,-999.9,-999.0,33,0.00,,,0.00,WSDL version 420,2015-04-27 16:12:00,
2015-04-27 09:18:00,69.1,38.4,27.32,North,-9999,-999.9,-999.0,33,0.00,,,0.00,WSDL version 420,2015-04-27 16:18:00,
2015-04-27 09:24:00,70.3,38.7,27.32,North,-9999,-999.9,-999.0,32,0.00,,,0.00,WSDL version 420,2015-04-27 16:24:00,
2015-04-27 09:30:00,71.6,37.8,27.32,North,-9999,-999.9,-999.0,27,0.00,,,0.00,WSDL version 420,2015-04-27 16:30:00,
2015-04-27 09:36:00,71.9,36.0,27.32,North,-9999,-999.9,-999.0,26,0.00,,,0.00,WSDL version 420,2015-04-27 16:36:00,
2015-04-27 09:42:00,72.9,37.7,27.32,North,-9999,-999.9,-999.0,27,0.00,,,0.00,WSDL version 420,2015-04-27 16:42:00,
2015-04-27 09:48:00,74.2,38.9,27.32,North,-9999,-999.9,-999.0,26,0.00,,,0.00,WSDL version 420,2015-04-27 16:48:00,
2015-04-27 09:54:00,74.7,35.2,27.32,North,-9999,-999.9,-999.0,24,0.00,,,0.00,WSDL version 420,2015-04-27 16:54:00,
2015-04-27 10:00:00,75.2,36.7,27.32,North,-9999,-999.9,-999.0,25,0.00,,,0.00,WSDL version 420,2015-04-27 17:00:00,
2015-04-27 10:06:00,76.2,38.2,27.32,North,-9999,-999.9,-999.0,26,0.00,,,0.00,WSDL version 420,2015-04-27 17:06:00,
2015-04-27 10:12:00,76.4,37.2,27.32,North,-9999,-999.9,-999.0,22,0.00,,,0.00,WSDL version 420,2015-04-27 17:12:00,
2015-04-27 10:18:00,77.1,36.1,27.32,North,-9999,-999.9,-999.0,23,0.00,,,0.00,WSDL version 420,2015-04-27 17:18:00,
2015-04-27 10:24:00,76.7,35.0,27.32,North,-9999,-999.9,-999.0,23,0.00,,,0.00,WSDL version 420,2015-04-27 17:24:00,
2015-04-27 10:30:00,77.0,34.5,27.32,North,-9999,-999.9,-999.0,21,0.00,,,0.00,WSDL version 420,2015-04-27 17:30:00,
2015-04-27 10:36:00,76.6,35.0,27.32,North,-9999,-999.9,-999.0,22,0.00,,,0.00,WSDL version 420,2015-04-27 17:36:00,
2015-04-27 10:42:00,76.8,35.1,27.32,North,-9999,-999.9,-999.0,22,0.00,,,0.00,WSDL version 420,2015-04-27 17:42:00,
2015-04-27 10:48:00,77.5,35.7,27.29,North,-9999,-999.9,-999.0,22,0.00,,,0.00,WSDL version 420,2015-04-27 17:48:00,
2015-04-27 10:54:00,76.9,34.0,27.29,North,-9999,-999.9,-999.0,21,0.00,,,0.00,WSDL version 420,2015-04-27 17:54:00,
2015-04-27 11:00:00,76.9,34.0,27.29,North,-9999,-999.9,-999.0,21,0.00,,,0.00,WSDL version 420,2015-04-27 18:00:00,
2015-04-27 11:06:00,76.9,34.1,27.29,North,-9999,-999.9,-999.0,21,0.00,,,0.00,WSDL version 420,2015-04-27 18:06:00,
2015-04-27 11:12:00,76.5,34.6,27.29,North,-9999,-999.9,-999.0,22,0.00,,,0.00,WSDL version 420,2015-04-27 18:12:00,
2015-04-27 11:18:00,76.8,35.1,27.29,North,-9999,-999.9,-999.0,22,0.00,,,0.00,WSDL version 420,2015-04-27 18:18:00,
2015-04-27 11:24:00,76.7,35.4,27.29,North,-9999,-999.9,-999.0,22,0.00,,,0.00,WSDL version 420,2015-04-27 18:24:00,
2015-04-27 11:30:00,76.6,35.0,27.29,North,-9999,-999.9,-999.0,22,0.00,,,0.00,WSDL version 420,2015-04-27 18:30:00,
2015-04-27 11:36:00,76.7,34.8,27.29,North,-9999,-999.9,-999.0,22,0.00,,,0.00,WSDL version 420,2015-04-27 18:36:00,
2015-04-27 11:42:00,76.9,35.2,27.29,North,-9999,-999.9,-999.0,22,0.00,,,0.00,WSDL version 420,2015-04-27 18:42:00,
2015-04-27 11:48:00,77.2,34.7,27.29,North,-9999,-999.9,-999.0,22,0.00,,,0.00,WSDL version 420,2015-04-27 18:48:00,
2015-04-27 11:54:00,78.0,36.1,27.29,North,-9999,-999.9,-999.0,22,0.00,,,0.00,WSDL version 420,2015-04-27 18:54:00,
2015-04-27 12:00:00,78.6,35.8,27.29,North,-9999,-999.9,-999.0,20,0.00,,,0.00,WSDL version 420,2015-04-27 19:00:00,
2015-04-27 12:06:00,79.2,35.5,27.29,North,-9999,-999.9,-999.0,21,0.00,,,0.00,WSDL version 420,2015-04-27 19:06:00,
2015-04-27 12:12:00,80.1,36.5,27.29,North,-9999,-999.9,-999.0,20,0.00,,,0.00,WSDL version 420,2015-04-27 19:12:00,
2015-04-27 12:18:00,81.4,36.7,27.29,North,-9999,-999.9,-999.0,20,0.00,,,0.00,WSDL version 420,2015-04-27 19:18:00,
2015-04-27 12:24:00,81.1,36.3,27.29,North,-9999,-999.9,-999.0,20,0.00,,,0.00,WSDL version 420,2015-04-27 19:24:00,
2015-04-27 12:30:00,81.7,36.8,27.29,North,-9999,-999.9,-999.0,20,0.00,,,0.00,WSDL version 420,2015-04-27 19:30:00,
2015-04-27 12:36:00,81.8,36.8,27.29,North,-9999,-999.9,-999.0,20,0.00,,,0.00,WSDL version 420,2015-04-27 19:36:00,
2015-04-27 12:42:00,81.9,36.4,27.29,North,-9999,-999.9,-999.0,19,0.00,,,0.00,WSDL version 420,2015-04-27 19:42:00,
2015-04-27 12:48:00,82.7,36.3,27.26,North,-9999,-999.9,-999.0,19,0.00,,,0.00,WSDL version 420,2015-04-27 19:48:00,
2015-04-27 12:54:00,83.9,38.1,27.26,North,-9999,-999.9,-999.0,20,0.00,,,0.00,WSDL version 420,2015-04-27 19:54:00,
2015-04-27 13:00:00,84.4,40.3,27.26,North,-9999,-999.9,-999.0,21,0.00,,,0.00,WSDL version 420,2015-04-27 20:00:00,
2015-04-27 13:06:00,83.8,41.4,27.26,North,-9999,-999.9,-999.0,22,0.00,,,0.00,WSDL version 420,2015-04-27 20:06:00,
2015-04-27 13:12:00,84.2,42.5,27.26,North,-9999,-999.9,-999.0,23,0.00,,,0.00,WSDL version 420,2015-04-27 20:12:00,
2015-04-27 13:18:00,84.8,43.7,27.26,North,-9999,-999.9,-999.0,25,0.00,,,0.00,WSDL version 420,2015-04-27 20:18:00,
2015-04-27 13:24:00,84.8,42.8,27.26,North,-9999,-999.9,-999.0,23,0.00,,,0.00,WSDL version 420,2015-04-27 20:24:00,
2015-04-27 13:30:00,84.9,43.0,27.26,North,-9999,-999.9,-999.0,23,0.00,,,0.00,WSDL version 420,2015-04-27 20:30:00,
2015-04-27 13:36:00,84.7,42.6,27.26,North,-9999,-999.9,-999.0,23,0.00,,,0.00,WSDL version 420,2015-04-27 20:36:00,
2015-04-27 13:42:00,84.5,43.6,27.26,North,-9999,-999.9,-999.0,24,0.00,,,0.00,WSDL version 420,2015-04-27 20:42:00,
2015-04-27 13:48:00,84.2,45.0,27.26,North,-9999,-999.9,-999.0,26,0.00,,,0.00,WSDL version 420,2015-04-27 20:48:00,
2015-04-27 13:54:00,83.7,45.5,27.26,North,-9999,-999.9,-999.0,27,0.00,,,0.00,WSDL version 420,2015-04-27 20:54:00,
2015-04-27 14:00:00,83.6,44.8,27.26,North,-9999,-999.9,-999.0,25,0.00,,,0.00,WSDL version 420,2015-04-27 21:00:00,
2015-04-27 14:06:00,83.1,44.5,27.26,North,-9999,-999.9,-999.0,26,0.00,,,0.00,WSDL version 420,2015-04-27 21:06:00,
2015-04-27 14:12:00,83.2,44.9,27.26,North,-9999,-999.9,-999.0,27,0.00,,,0.00,WSDL version 420,2015-04-27 21:12:00,
2015-04-27 14:18:00,83.1,45.3,27.26,North,-9999,-999.9,-999.0,27,0.00,,,0.00,WSDL version 420,2015-04-27 21:18:00,
2015-04-27 14:24:00,82.8,45.6,27.26,North,-9999,-999.9,-999.0,28,0.00,,,0.00,WSDL version 420,2015-04-27 21:24:00,
2015-04-27 14:30:00,82.7,46.3,27.26,North,-9999,-999.9,-999.0,28,0.00,,,0.00,WSDL version 420,2015-04-27 21:30:00,
2015-04-27 14:36:00,82.5,45.8,27.26,North,-9999,-999.9,-999.0,28,0.00,,,0.00,WSDL version 420,2015-04-27 21:36:00,
2015-04-27 14:42:00,82.3,46.8,27.26,North,-9999,-999.9,-999.0,29,0.00,,,0.00,WSDL version 420,2015-04-27 21:42:00,
2015-04-27 14:48:00,82.2,46.3,27.26,North,-9999,-999.9,-999.0,29,0.00,,,0.00,WSDL version 420,2015-04-27 21:48:00,
2015-04-27 14:54:00,82.3,46.3,27.26,North,-9999,-999.9,-999.0,28,0.00,,,0.00,WSDL version 420,2015-04-27 21:54:00,
2015-04-27 15:00:00,82.1,46.0,27.26,North,-9999,-999.9,-999.0,28,0.00,,,0.00,WSDL version 420,2015-04-27 22:00:00,
2015-04-27 15:06:00,81.8,45.5,27.26,North,-9999,-999.9,-999.0,28,0.00,,,0.00,WSDL version 420,2015-04-27 22:06:00,
2015-04-27 15:12:00,81.7,45.0,27.26,North,-9999,-999.9,-999.0,28,0.00,,,0.00,WSDL version 420,2015-04-27 22:12:00,
2015-04-27 15:18:00,81.7,45.1,27.26,North,-9999,-999.9,-999.0,28,0.00,,,0.00,WSDL version 420,2015-04-27 22:18:00,
2015-04-27 15:24:00,81.7,44.7,27.26,North,-9999,-999.9,-999.0,26,0.00,,,0.00,WSDL version 420,2015-04-27 22:24:00,